createdAt,value
2018-09-01T00:02:20.548Z,24.47
2018-09-01T00:04:48.782Z,24.27
2018-09-01T00:07:17.103Z,24.47
2018-09-01T00:09:45.449Z,24.87
2018-09-01T00:12:13.867Z,25.30
2018-09-01T00:14:42.099Z,26.13
2018-09-01T00:17:14.551Z,27.43
2018-09-01T00:19:42.780Z,26.23
2018-09-01T00:22:10.998Z,27.87
2018-09-01T00:24:39.220Z,27.30
2018-09-01T00:27:07.419Z,26.70
2018-09-01T00:29:35.640Z,27.83
2018-09-01T00:32:03.832Z,25.97
2018-09-01T00:34:32.116Z,27.17
2018-09-01T00:37:00.341Z,27.73
2018-09-01T00:39:28.769Z,27.03
2018-09-01T00:41:57.296Z,28.43
2018-09-01T00:44:25.503Z,28.37
2018-09-01T00:46:53.699Z,26.80
2018-09-01T00:49:22.128Z,27.07
2018-09-01T00:51:50.343Z,28.57
2018-09-01T00:54:18.995Z,28.97
2018-09-01T00:56:47.184Z,27.93
2018-09-01T00:59:15.376Z,28.17
2018-09-01T01:01:43.784Z,28.00
2018-09-01T01:04:12.008Z,27.50
2018-09-01T01:06:40.560Z,28.63
2018-09-01T01:09:08.812Z,27.73
2018-09-01T01:11:37.005Z,27.90
2018-09-01T01:14:05.424Z,27.30
2018-09-01T01:16:33.631Z,28.77
2018-09-01T01:19:02.987Z,26.57
2018-09-01T01:21:31.480Z,25.97
2018-09-01T01:23:59.684Z,27.43
2018-09-01T01:26:28.220Z,27.03
2018-09-01T01:28:56.440Z,24.67
2018-09-01T01:31:24.884Z,25.73
2018-09-01T01:33:53.264Z,26.33
2018-09-01T01:36:21.492Z,24.90
2018-09-01T01:38:49.699Z,24.97
2018-09-01T01:41:18.195Z,25.07
2018-09-01T01:43:46.336Z,22.67
2018-09-01T01:46:14.772Z,23.03
2018-09-01T01:48:42.985Z,22.50
2018-09-01T01:51:11.893Z,20.93
2018-09-01T01:53:40.078Z,21.30
2018-09-01T01:56:08.382Z,21.17
2018-09-01T01:58:37.002Z,22.10
2018-09-01T02:01:05.195Z,20.80
2018-09-01T02:03:33.403Z,21.60
2018-09-01T02:06:02.270Z,22.07
2018-09-01T02:08:30.476Z,19.77
2018-09-01T02:10:59.308Z,21.20
2018-09-01T02:13:27.504Z,18.83
2018-09-01T02:15:55.920Z,18.83
2018-09-01T02:18:24.146Z,18.60
2018-09-01T02:20:52.352Z,16.30
2018-09-01T02:23:20.899Z,16.20
2018-09-01T02:25:49.088Z,16.43
2018-09-01T02:28:17.349Z,14.77
2018-09-01T02:30:45.761Z,16.40
2018-09-01T02:33:13.973Z,15.33
2018-09-01T02:35:42.171Z,15.37
2018-09-01T02:38:10.620Z,14.67
2018-09-01T02:40:38.824Z,14.53
2018-09-01T02:43:07.303Z,14.70
2018-09-01T02:45:35.499Z,14.27
2018-09-01T02:48:03.767Z,15.67
2018-09-01T02:50:32.282Z,14.33
2018-09-01T02:53:00.624Z,14.63
2018-09-01T02:55:28.836Z,14.87
2018-09-01T02:57:57.245Z,14.43
2018-09-01T03:00:30.851Z,15.23
2018-09-01T03:02:59.252Z,14.57
2018-09-01T03:05:27.466Z,14.37
2018-09-01T03:07:56.120Z,12.63
2018-09-01T03:10:24.623Z,13.53
2018-09-01T03:12:52.832Z,13.40
2018-09-01T03:15:21.019Z,13.47
2018-09-01T03:17:49.489Z,13.00
2018-09-01T03:20:17.737Z,10.97
2018-09-01T03:22:45.905Z,11.93
2018-09-01T03:25:14.288Z,11.47
2018-09-01T03:27:42.511Z,12.63
2018-09-01T03:30:10.785Z,12.13
2018-09-01T03:32:38.974Z,12.50
2018-09-01T03:35:07.204Z,12.87
2018-09-01T03:37:35.424Z,12.20
2018-09-01T03:40:03.635Z,14.40
2018-09-01T03:42:32.104Z,14.63
2018-09-01T03:45:00.325Z,14.00
2018-09-01T03:47:28.552Z,14.43
2018-09-01T03:49:56.784Z,15.10
2018-09-01T03:52:25.000Z,14.90
2018-09-01T03:54:53.227Z,15.90
2018-09-01T03:57:21.460Z,14.60
2018-09-01T03:59:49.687Z,14.97
2018-09-01T04:02:17.885Z,14.80
2018-09-01T04:04:46.174Z,14.83
2018-09-01T04:07:14.369Z,13.37
2018-09-01T04:09:42.588Z,13.77
2018-09-01T04:12:10.812Z,12.23
2018-09-01T04:14:38.996Z,14.00
2018-09-01T04:17:07.185Z,12.47
2018-09-01T04:19:35.414Z,11.57
2018-09-01T04:22:03.584Z,12.10
2018-09-01T04:24:31.799Z,11.60
2018-09-01T04:27:00.039Z,11.83
2018-09-01T04:29:28.272Z,11.00
2018-09-01T04:31:56.588Z,10.83
2018-09-01T04:34:24.713Z,12.53
2018-09-01T04:36:53.195Z,11.83
2018-09-01T04:39:21.475Z,11.57
2018-09-01T04:41:49.668Z,10.47
2018-09-01T04:44:18.068Z,11.97
2018-09-01T04:46:46.304Z,11.23
2018-09-01T04:49:14.507Z,11.90
2018-09-01T04:51:42.871Z,12.27
2018-09-01T04:54:11.075Z,13.00
2018-09-01T04:56:39.281Z,13.00
2018-09-01T04:59:07.696Z,11.50
2018-09-01T05:01:35.900Z,12.67
2018-09-01T05:04:04.479Z,13.30
2018-09-01T05:06:32.687Z,12.80
2018-09-01T05:09:00.900Z,12.13
2018-09-01T05:11:29.456Z,11.60
2018-09-01T05:13:57.674Z,11.27
2018-09-01T05:16:25.938Z,12.57
2018-09-01T05:18:54.317Z,13.03
2018-09-01T05:21:22.514Z,11.43
2018-09-01T05:23:50.720Z,12.43
2018-09-01T05:26:19.080Z,11.20
2018-09-01T05:28:47.379Z,11.93
2018-09-01T05:31:16.896Z,11.10
2018-09-01T05:33:45.224Z,11.17
2018-09-01T05:36:13.418Z,11.93
2018-09-01T05:38:41.964Z,11.20
2018-09-01T05:41:10.168Z,11.33
2018-09-01T05:43:38.440Z,9.33
2018-09-01T05:46:06.611Z,9.87
2018-09-01T05:48:34.840Z,8.97
2018-09-01T05:51:03.128Z,8.67
2018-09-01T05:53:31.357Z,9.10
2018-09-01T05:55:59.580Z,9.50
2018-09-01T05:58:27.805Z,9.60
2018-09-01T06:00:56.050Z,8.63
2018-09-01T06:03:24.256Z,8.47
2018-09-01T06:05:52.782Z,7.80
2018-09-01T06:08:21.199Z,9.23
2018-09-01T06:10:49.496Z,8.13
2018-09-01T06:13:17.700Z,7.67
2018-09-01T06:15:46.080Z,7.73
2018-09-01T06:18:14.280Z,7.40
2018-09-01T06:20:42.476Z,7.97
2018-09-01T06:23:10.852Z,7.17
2018-09-01T06:25:39.264Z,7.30
2018-09-01T06:28:17.101Z,7.92
2018-09-01T06:30:47.852Z,6.50
2018-09-01T06:33:16.115Z,6.53
2018-09-01T06:35:44.372Z,6.63
2018-09-01T06:38:12.755Z,5.00
2018-09-01T06:40:40.928Z,5.40
2018-09-01T06:43:09.378Z,5.13
2018-09-01T06:45:37.524Z,5.30
2018-09-01T06:48:05.759Z,5.10
2018-09-01T06:50:34.985Z,4.27
2018-09-01T06:53:03.488Z,4.80
2018-09-01T06:55:31.752Z,4.60
2018-09-01T06:58:00.015Z,3.60
2018-09-01T07:00:28.300Z,4.43
2018-09-01T07:02:57.044Z,3.60
2018-09-01T07:05:25.638Z,3.80
2018-09-01T07:07:53.823Z,3.87
2018-09-01T07:10:22.332Z,3.40
2018-09-01T07:12:50.540Z,3.50
2018-09-01T07:15:18.824Z,3.60
2018-09-01T07:17:46.996Z,3.53
2018-09-01T07:20:15.219Z,3.50
2018-09-01T07:22:43.485Z,3.00
2018-09-01T07:25:11.672Z,3.03
2018-09-01T07:27:40.040Z,3.23
2018-09-01T07:30:09.395Z,3.60
2018-09-01T07:32:37.623Z,3.07
2018-09-01T07:35:05.900Z,3.70
2018-09-01T07:37:34.107Z,3.10
2018-09-01T07:40:02.344Z,3.17
2018-09-01T07:42:30.588Z,3.60
2018-09-01T07:44:58.875Z,3.03
2018-09-01T07:47:27.251Z,3.43
2018-09-01T07:49:55.590Z,3.40
2018-09-01T07:52:23.680Z,3.37
2018-09-01T07:54:51.906Z,3.20
2018-09-01T07:57:20.159Z,2.90
2018-09-01T07:59:48.652Z,2.77
2018-09-01T08:02:17.084Z,3.40
2018-09-01T08:04:45.303Z,2.67
2018-09-01T08:07:13.528Z,2.77
2018-09-01T08:09:41.744Z,2.70
2018-09-01T08:12:09.923Z,3.27
2018-09-01T08:14:38.233Z,3.10
2018-09-01T08:17:06.430Z,2.63
2018-09-01T08:19:34.751Z,3.50
2018-09-01T08:22:02.930Z,2.83
2018-09-01T08:24:31.166Z,3.00
2018-09-01T08:26:59.382Z,2.60
2018-09-01T08:29:27.884Z,3.03
2018-09-01T08:31:56.577Z,2.73
2018-09-01T08:34:24.760Z,3.03
2018-09-01T08:36:52.997Z,2.70
2018-09-01T08:39:21.371Z,2.37
2018-09-01T08:41:49.730Z,3.17
2018-09-01T08:44:17.977Z,2.03
2018-09-01T08:46:46.204Z,2.13
2018-09-01T08:49:14.514Z,2.40
2018-09-01T08:51:42.719Z,2.50
2018-09-01T08:54:10.965Z,2.60
2018-09-01T08:56:39.205Z,2.37
2018-09-01T08:59:07.339Z,2.60
2018-09-01T09:01:35.565Z,4.33
2018-09-01T09:04:03.779Z,2.73
2018-09-01T09:06:32.025Z,2.10
2018-09-01T09:09:00.274Z,1.90
2018-09-01T09:11:28.573Z,2.20
2018-09-01T09:13:56.751Z,1.83
2018-09-01T09:16:24.965Z,1.87
2018-09-01T09:18:53.215Z,2.40
2018-09-01T09:21:21.418Z,1.57
2018-09-01T09:23:49.701Z,1.87
2018-09-01T09:26:17.863Z,1.67
2018-09-01T09:28:46.120Z,2.00
2018-09-01T09:31:14.353Z,1.60
2018-09-01T09:33:42.547Z,2.07
2018-09-01T09:36:10.780Z,1.70
2018-09-01T09:38:39.012Z,1.73
2018-09-01T09:41:11.824Z,1.37
2018-09-01T09:43:40.023Z,1.77
2018-09-01T09:46:08.232Z,1.80
2018-09-01T09:48:36.477Z,1.73
2018-09-01T09:51:04.723Z,1.90
2018-09-01T09:53:32.953Z,1.60
2018-09-01T09:56:01.264Z,1.40
2018-09-01T09:58:29.476Z,1.57
2018-09-01T10:00:59.667Z,1.87
2018-09-01T10:03:28.460Z,1.43
2018-09-01T10:05:56.695Z,1.73
2018-09-01T10:08:24.893Z,1.27
2018-09-01T10:10:53.137Z,1.20
2018-09-01T10:13:21.304Z,1.77
2018-09-01T10:15:49.687Z,1.47
2018-09-01T10:18:17.835Z,1.87
2018-09-01T10:20:46.035Z,1.63
2018-09-01T10:23:14.220Z,1.73
2018-09-01T10:25:42.424Z,1.57
2018-09-01T10:28:10.612Z,1.40
2018-09-01T10:30:38.916Z,2.10
2018-09-01T10:33:07.393Z,1.80
2018-09-01T10:35:35.660Z,1.37
2018-09-01T10:38:04.076Z,1.37
2018-09-01T10:40:32.285Z,1.40
2018-09-01T10:43:00.522Z,2.17
2018-09-01T10:45:28.888Z,1.40
2018-09-01T10:47:57.141Z,1.33
2018-09-01T10:50:25.429Z,1.40
2018-09-01T10:52:53.808Z,1.20
2018-09-01T10:55:22.055Z,1.43
2018-09-01T10:57:50.653Z,1.00
2018-09-01T11:00:20.844Z,1.37
2018-09-01T11:02:50.577Z,1.30
2018-09-01T11:05:18.866Z,1.57
2018-09-01T11:07:47.108Z,1.30
2018-09-01T11:10:15.347Z,1.10
2018-09-01T11:12:43.662Z,1.67
2018-09-01T11:15:11.842Z,0.90
2018-09-01T11:17:40.072Z,1.17
2018-09-01T11:20:08.370Z,1.47
2018-09-01T11:22:36.539Z,1.70
2018-09-01T11:25:04.817Z,1.00
2018-09-01T11:27:33.094Z,1.33
2018-09-01T11:30:01.259Z,1.27
2018-09-01T11:32:29.788Z,1.27
2018-09-01T11:34:58.220Z,1.50
2018-09-01T11:37:26.424Z,1.40
2018-09-01T11:39:54.644Z,1.63
2018-09-01T11:42:22.869Z,1.07
2018-09-01T11:44:51.119Z,1.30
2018-09-01T11:47:19.291Z,1.20
2018-09-01T11:49:47.523Z,1.10
2018-09-01T11:52:15.751Z,1.27
2018-09-01T11:54:44.058Z,1.13
2018-09-01T11:57:12.272Z,1.30
2018-09-01T11:59:40.498Z,1.30
2018-09-01T12:02:08.727Z,1.00
2018-09-01T12:04:36.917Z,1.07
2018-09-01T12:07:05.246Z,1.13
2018-09-01T12:09:33.449Z,1.17
2018-09-01T12:12:01.742Z,2.23
2018-09-01T12:14:30.128Z,1.77
2018-09-01T12:16:58.393Z,1.93
2018-09-01T12:19:26.923Z,1.10
2018-09-01T12:21:55.151Z,0.90
2018-09-01T12:24:23.506Z,1.10
2018-09-01T12:26:51.932Z,1.10
2018-09-01T12:29:20.180Z,1.13
2018-09-01T12:31:48.415Z,0.97
2018-09-01T12:34:16.645Z,0.90
2018-09-01T12:36:44.865Z,1.53
2018-09-01T12:39:13.064Z,0.90
2018-09-01T12:41:41.276Z,1.27
2018-09-01T12:44:09.477Z,1.10
2018-09-01T12:46:37.728Z,0.87
2018-09-01T12:49:05.931Z,1.03
2018-09-01T12:51:34.162Z,1.13
2018-09-01T12:54:02.404Z,1.30
2018-09-01T12:56:30.733Z,0.97
2018-09-01T12:58:58.938Z,1.00
2018-09-01T13:01:27.153Z,1.33
2018-09-01T13:03:55.368Z,1.43
2018-09-01T13:06:23.624Z,1.00
2018-09-01T13:08:51.828Z,0.87
2018-09-01T13:11:20.061Z,1.20
2018-09-01T13:13:48.276Z,1.27
2018-09-01T13:16:16.564Z,1.37
2018-09-01T13:18:44.784Z,0.97
2018-09-01T13:21:13.051Z,1.40
2018-09-01T13:23:41.380Z,1.10
2018-09-01T13:26:09.587Z,1.20
2018-09-01T13:28:37.816Z,1.20
2018-09-01T13:31:06.020Z,1.57
2018-09-01T13:33:34.548Z,1.20
2018-09-01T13:36:02.878Z,1.63
2018-09-01T13:38:31.082Z,1.00
2018-09-01T13:40:59.325Z,1.77
2018-09-01T13:43:27.536Z,1.03
2018-09-01T13:45:55.752Z,1.40
2018-09-01T13:48:23.967Z,1.20
2018-09-01T13:50:52.197Z,1.20
2018-09-01T13:53:20.384Z,1.27
2018-09-01T13:55:48.604Z,1.10
2018-09-01T13:58:16.827Z,1.10
2018-09-01T14:00:45.052Z,1.30
2018-09-01T14:03:13.352Z,1.30
2018-09-01T14:05:41.575Z,1.65
2018-09-01T14:08:09.913Z,1.50
2018-09-01T14:10:38.138Z,1.20
2018-09-01T14:13:06.428Z,1.20
2018-09-01T14:15:34.652Z,1.10
2018-09-01T14:18:02.901Z,1.20
2018-09-01T14:20:31.186Z,1.00
2018-09-01T14:22:59.440Z,1.10
2018-09-01T14:25:27.652Z,1.13
2018-09-01T14:27:55.831Z,1.20
2018-09-01T14:30:24.052Z,1.00
2018-09-01T14:32:52.356Z,1.00
2018-09-01T14:35:20.680Z,1.20
2018-09-01T14:37:48.892Z,1.17
2018-09-01T14:40:17.103Z,1.17
2018-09-01T14:42:45.395Z,1.10
2018-09-01T14:45:13.583Z,1.17
2018-09-01T14:47:41.816Z,1.10
2018-09-01T14:50:10.031Z,1.30
2018-09-01T14:52:38.296Z,0.97
2018-09-01T14:55:06.572Z,1.13
2018-09-01T14:57:34.806Z,1.10
2018-09-01T15:00:03.088Z,1.27
2018-09-01T15:02:31.322Z,1.33
2018-09-01T15:04:59.570Z,1.17
2018-09-01T15:07:27.771Z,1.00
2018-09-01T15:09:56.016Z,1.10
2018-09-01T15:12:24.227Z,1.33
2018-09-01T15:14:52.460Z,1.27
2018-09-01T15:17:20.661Z,1.13
2018-09-01T15:19:48.908Z,0.90
2018-09-01T15:22:17.099Z,0.97
2018-09-01T15:24:45.291Z,0.70
2018-09-01T15:27:13.589Z,0.90
2018-09-01T15:29:41.792Z,1.10
2018-09-01T15:32:09.989Z,1.23
2018-09-01T15:34:38.216Z,1.10
2018-09-01T15:37:06.438Z,0.97
2018-09-01T15:39:34.675Z,1.03
2018-09-01T15:42:02.916Z,1.10
2018-09-01T15:44:31.179Z,1.20
2018-09-01T15:46:59.398Z,0.90
2018-09-01T15:49:27.599Z,1.30
2018-09-01T15:51:55.821Z,0.80
2018-09-01T15:54:24.076Z,0.93
2018-09-01T15:56:52.285Z,1.17
2018-09-01T15:59:20.523Z,1.10
2018-09-01T16:01:48.764Z,1.10
2018-09-01T16:04:16.987Z,0.90
2018-09-01T16:06:45.182Z,0.90
2018-09-01T16:09:13.415Z,1.13
2018-09-01T16:11:41.656Z,1.57
2018-09-01T16:14:09.936Z,2.47
2018-09-01T16:16:38.158Z,1.07
2018-09-01T16:19:06.393Z,2.30
2018-09-01T16:21:34.741Z,0.90
2018-09-01T16:24:02.947Z,1.20
2018-09-01T16:26:31.155Z,0.90
2018-09-01T16:28:59.440Z,0.90
2018-09-01T16:31:27.740Z,0.97
2018-09-01T16:33:55.944Z,1.07
2018-09-01T16:36:24.172Z,1.37
2018-09-01T16:38:52.456Z,1.40
2018-09-01T16:41:20.692Z,1.13
2018-09-01T16:43:48.909Z,1.20
2018-09-01T16:46:17.111Z,0.80
2018-09-01T16:48:45.512Z,1.50
2018-09-01T16:51:13.752Z,1.13
2018-09-01T16:53:41.920Z,1.20
2018-09-01T16:56:10.209Z,1.23
2018-09-01T16:58:38.459Z,1.00
2018-09-01T17:01:06.753Z,1.00
2018-09-01T17:03:34.954Z,1.03
2018-09-01T17:06:03.163Z,0.90
2018-09-01T17:08:31.371Z,1.10
2018-09-01T17:10:59.616Z,0.93
2018-09-01T17:13:27.848Z,1.37
2018-09-01T17:15:56.107Z,0.80
2018-09-01T17:18:24.579Z,1.13
2018-09-01T17:20:52.786Z,1.33
2018-09-01T17:23:20.997Z,1.20
2018-09-01T17:25:49.797Z,1.57
2018-09-01T17:28:18.004Z,0.97
2018-09-01T17:30:46.238Z,1.10
2018-09-01T17:33:14.472Z,1.23
2018-09-01T17:35:42.669Z,1.30
2018-09-01T17:38:10.908Z,1.30
2018-09-01T17:40:39.124Z,1.20
2018-09-01T17:43:07.348Z,1.50
2018-09-01T17:45:35.571Z,1.30
2018-09-01T17:48:03.855Z,1.07
2018-09-01T17:50:32.180Z,1.17
2018-09-01T17:53:00.472Z,1.47
2018-09-01T17:55:28.753Z,1.20
2018-09-01T17:57:56.983Z,1.13
2018-09-01T18:00:25.264Z,1.37
2018-09-01T18:02:53.480Z,1.50
2018-09-01T18:05:21.708Z,1.37
2018-09-01T18:07:49.960Z,1.50
2018-09-01T18:10:18.180Z,1.77
2018-09-01T18:12:46.412Z,1.73
2018-09-01T18:15:14.608Z,1.23
2018-09-01T18:17:42.877Z,1.43
2018-09-01T18:20:11.124Z,1.70
2018-09-01T18:22:39.320Z,1.67
2018-09-01T18:25:07.567Z,1.57
2018-09-01T18:27:35.795Z,1.63
2018-09-01T18:30:04.136Z,1.30
2018-09-01T18:32:32.432Z,1.10
2018-09-01T18:35:00.661Z,1.13
2018-09-01T18:37:28.896Z,1.40
2018-09-01T18:39:57.100Z,1.27
2018-09-01T18:42:25.328Z,1.67
2018-09-01T18:44:53.588Z,1.33
2018-09-01T18:47:21.851Z,1.40
2018-09-01T18:49:50.010Z,1.50
2018-09-01T18:52:18.238Z,1.30
2018-09-01T18:54:46.468Z,1.43
2018-09-01T18:57:14.692Z,1.50
2018-09-01T18:59:42.912Z,1.57
2018-09-01T19:02:11.108Z,1.40
2018-09-01T19:04:39.469Z,1.17
2018-09-01T19:07:07.674Z,1.03
2018-09-01T19:09:35.922Z,1.40
2018-09-01T19:12:04.176Z,1.33
2018-09-01T19:14:32.602Z,1.23
2018-09-01T19:17:00.839Z,1.23
2018-09-01T19:19:29.081Z,0.90
2018-09-01T19:21:57.324Z,1.50
2018-09-01T19:24:25.532Z,0.97
2018-09-01T19:26:53.785Z,0.97
2018-09-01T19:29:22.028Z,1.10
2018-09-01T19:31:50.431Z,1.40
2018-09-01T19:34:18.707Z,1.63
2018-09-01T19:36:46.944Z,1.30
2018-09-01T19:39:15.364Z,1.23
2018-09-01T19:41:43.949Z,1.43
2018-09-01T19:44:12.443Z,1.10
2018-09-01T19:46:40.588Z,1.20
2018-09-01T19:49:09.220Z,1.20
2018-09-01T19:51:37.770Z,1.00
2018-09-01T19:54:06.204Z,1.37
2018-09-01T19:56:34.431Z,1.23
2018-09-01T19:59:03.043Z,1.20
2018-09-01T20:01:31.260Z,1.40
2018-09-01T20:03:59.464Z,1.00
2018-09-01T20:06:27.916Z,1.20
2018-09-01T20:08:56.112Z,1.40
2018-09-01T20:11:24.297Z,1.33
2018-09-01T20:13:52.697Z,1.30
2018-09-01T20:16:20.896Z,1.37
2018-09-01T20:18:49.105Z,1.23
2018-09-01T20:21:17.331Z,1.37
2018-09-01T20:23:45.544Z,0.93
2018-09-01T20:26:13.772Z,1.30
2018-09-01T20:28:41.961Z,1.30
2018-09-01T20:31:10.191Z,1.20
2018-09-01T20:33:38.415Z,1.60
2018-09-01T20:36:11.328Z,1.43
2018-09-01T20:38:39.631Z,0.90
2018-09-01T20:41:07.838Z,1.40
2018-09-01T20:43:36.067Z,0.90
2018-09-01T20:46:04.440Z,1.57
2018-09-01T20:48:32.925Z,1.10
2018-09-01T20:51:01.140Z,1.40
2018-09-01T20:53:29.347Z,1.40
2018-09-01T20:55:57.887Z,0.90
2018-09-01T20:58:26.075Z,1.37
2018-09-01T21:00:54.270Z,1.47
2018-09-01T21:03:22.652Z,1.40
2018-09-01T21:05:50.868Z,1.70
2018-09-01T21:08:19.060Z,1.67
2018-09-01T21:10:47.516Z,1.50
2018-09-01T21:13:15.739Z,1.43
2018-09-01T21:15:44.152Z,1.07
2018-09-01T21:18:12.400Z,1.13
2018-09-01T21:20:40.983Z,1.57
2018-09-01T21:23:09.254Z,1.40
2018-09-01T21:25:37.467Z,1.73
2018-09-01T21:28:05.995Z,1.90
2018-09-01T21:30:35.193Z,1.47
2018-09-01T21:33:03.396Z,1.70
2018-09-01T21:35:32.047Z,1.47
2018-09-01T21:38:00.272Z,1.57
2018-09-01T21:40:28.507Z,1.50
2018-09-01T21:42:57.128Z,1.63
2018-09-01T21:45:25.315Z,2.10
2018-09-01T21:47:53.688Z,1.47
2018-09-01T21:50:21.965Z,1.73
2018-09-01T21:52:50.164Z,1.33
2018-09-01T21:55:18.664Z,1.50
2018-09-01T21:57:46.992Z,1.90
2018-09-01T22:00:15.184Z,1.50
2018-09-01T22:02:43.631Z,1.87
2018-09-01T22:05:19.327Z,1.60
2018-09-01T22:07:48.023Z,1.43
2018-09-01T22:10:16.233Z,1.60
2018-09-01T22:12:44.426Z,1.47
2018-09-01T22:15:12.861Z,2.00
2018-09-01T22:17:41.047Z,1.53
2018-09-01T22:20:09.240Z,1.60
2018-09-01T22:22:37.724Z,1.53
2018-09-01T22:25:06.037Z,1.97
2018-09-01T22:27:34.403Z,2.40
2018-09-01T22:30:02.622Z,1.90
2018-09-01T22:32:30.824Z,1.50
2018-09-01T22:34:59.271Z,1.70
2018-09-01T22:37:27.515Z,2.03
2018-09-01T22:39:55.947Z,1.80
2018-09-01T22:42:24.528Z,1.77
2018-09-01T22:44:52.720Z,1.97
2018-09-01T22:47:25.117Z,1.60
2018-09-01T22:49:53.308Z,1.70
2018-09-01T22:52:21.631Z,1.80
2018-09-01T22:54:50.174Z,1.60
2018-09-01T22:57:18.516Z,1.40
2018-09-01T22:59:47.276Z,1.83
2018-09-01T23:02:15.719Z,2.30
2018-09-01T23:04:43.896Z,1.63
2018-09-01T23:07:12.652Z,1.90
2018-09-01T23:09:40.864Z,1.40
2018-09-01T23:12:09.063Z,1.87
2018-09-01T23:14:37.520Z,2.00
2018-09-01T23:17:05.711Z,1.97
2018-09-01T23:19:34.303Z,1.73
2018-09-01T23:22:02.504Z,1.50
2018-09-01T23:24:30.696Z,2.20
2018-09-01T23:26:59.044Z,1.63
2018-09-01T23:29:27.258Z,1.93
2018-09-01T23:31:55.851Z,2.00
2018-09-01T23:34:24.031Z,1.63
2018-09-01T23:36:52.397Z,1.83
2018-09-01T23:39:20.644Z,1.97
2018-09-01T23:41:48.888Z,1.83
2018-09-01T23:44:17.800Z,2.17
2018-09-01T23:46:46.000Z,1.83
2018-09-01T23:49:14.196Z,1.77
2018-09-01T23:51:42.571Z,2.10
2018-09-01T23:54:10.761Z,1.80
2018-09-01T23:56:39.040Z,2.20
2018-09-01T23:59:07.656Z,1.80
